Nearby METAR Reports

 

K8A0 - Albertville Muni, AL
Distance from station: SW 1mi, 2km
Updated: Sat, 15-Jun-2024 5:15am CDT
Clear
Clear
 Wind from calm
Wind: Calm
Temperature: 70°F , 21°C
Dew Point: 68°F , 20°C
Humidity: 94%
Barometer: 30.00 inHg , 1015.9 hPa
Clouds: Clear
Visibility: 10 miles , 16 km
2024/06/15 10:15 K8A0 151015Z AUTO 00000KT 10SM CLR 21/20 A3000 RMK AO2
KGAD - Gadsden Muni, AL
Distance from station: SSE 21mi, 35km
Updated: Sat, 15-Jun-2024 4:56am CDT
Clear
Clear
 Wind from calm
Wind: Calm
Temperature: 70°F , 21°C
Dew Point: 70°F , 21°C
Humidity: 100%
Barometer: 29.98 inHg , 1015.2 hPa
Clouds: Clear
Visibility: 9 miles , 14 km
2024/06/15 09:56 KGAD 150956Z AUTO 00000KT 9SM CLR 21/21 A2998 RMK AO2 SLP150 T02060206 $
 
K4A6 - Scottsboro, AL
Distance from station: NNE 33mi, 53km
Updated: Sat, 15-Jun-2024 5:35am CDT
Clear
Clear
 Wind from calm
Wind: Calm
Temperature: 70°F , 21°C
Dew Point: 70°F , 21°C
Humidity: 100%
Barometer: 29.99 inHg , 1015.6 hPa
Clouds: Clear
Visibility: 7 miles , 11 km
2024/06/15 10:35 K4A6 151035Z AUTO 00000KT 7SM CLR 21/21 A2999 RMK AO2
K4A9 - Ft Payne, AL
Distance from station: ENE 33mi, 54km
Updated: Sat, 15-Jun-2024 5:15am CDT
Mist, Clear
Mist, Clear
 Wind from calm
Wind: Calm
Temperature: 66°F , 19°C
Dew Point: 64°F , 18°C
Humidity: 94%
Barometer: 29.98 inHg , 1015.2 hPa
Summary: Mist
Clouds: Clear
Visibility: 5 miles , 8 km
2024/06/15 10:15 K4A9 151015Z AUTO 00000KT 5SM BR CLR 19/18 A2998 RMK AO2 T01850181
 
KMDQ - Huntsville, AL
Distance from station: NNW 47mi, 75km
Updated: Sat, 15-Jun-2024 5:15am CDT
Mist, Clear
Mist, Clear
 Wind from calm
Wind: Calm
Temperature: 68°F , 20°C
Dew Point: 68°F , 20°C
Humidity: 100%
Barometer: 30.00 inHg , 1015.9 hPa
Summary: Mist
Clouds: Clear
Visibility: 5 miles , 8 km
2024/06/15 10:15 KMDQ 151015Z AUTO 00000KT 5SM BR CLR 20/20 A3000 RMK A02 T02050199
KDCU - Decatur, AL
Distance from station: NW 49mi, 80km
Updated: Sat, 15-Jun-2024 4:53am CDT
Clear
Clear
 Wind from calm
Wind: Calm
Temperature: 70°F , 21°C
Dew Point: 66°F , 19°C
Humidity: 88%
Barometer: 29.98 inHg , 1015.2 hPa
Clouds: Clear
Visibility: 9 miles , 14 km
2024/06/15 09:53 KDCU 150953Z AUTO 00000KT 9SM CLR 21/19 A2998 RMK AO2 SLP142 T02110194 $
 
KGKT - Sevierville, TN
Distance from station: NE 235mi, 378km
Updated: Sat, 15-Jun-2024 5:36am CDT
Fog, Overcast
Fog, Overcast
 Wind from calm
Wind: Calm
Temperature: 68°F , 20°C
Dew Point: 68°F , 20°C
Humidity: 100%
Barometer: 30.01 inHg , 1016.3 hPa
Summary: Fog
Clouds: Overcast
Visibility: less than 1/4 mile , 0.4 km
Cloud details: Overcast 0 ft
2024/06/15 10:36 KGKT 151036Z AUTO 00000KT M1/4SM FG VV000 20/20 A3001 RMK A01 VIS M1/4V5
KSSI - Jeckyll Island, GA
Distance from station: SE 467mi, 752km
Updated: Sat, 15-Jun-2024 5:15am CDT
Mostly cloudy
Mostly cloudy
 Wind from calm
Wind: Calm
Temperature: 73°F , 23°C
Dew Point: 73°F , 23°C
Humidity: 100%
Barometer: 29.95 inHg , 1014.2 hPa
Clouds: Mostly cloudy
Visibility: 9 miles , 14 km
Cloud details: Mostly cloudy 200 ft
2024/06/15 10:15 KSSI 151015Z AUTO 00000KT 9SM BKN002 23/23 A2995 RMK AO2
 
KECP - Panama City, FL
Distance from station: S 330mi, 531km
Updated: Sat, 15-Jun-2024 4:53am CDT
Clear
Clear
 Wind from NNE
Wind: NNE 3 mph , 6 km/h
Temperature: 72°F , 22°C
Dew Point: 72°F , 22°C
Humidity: 100%
Barometer: 29.91 inHg , 1012.9 hPa
Clouds: Clear
Visibility: 7 miles , 11 km
2024/06/15 09:53 KECP 150953Z AUTO 03003KT 7SM CLR 22/22 A2991 RMK AO1 SLP140 T02220222
KTPA - Tampa, FL,
Distance from station: S 600mi, 965km
Updated: Sat, 15-Jun-2024 4:53am CDT
Partly cloudy
Partly cloudy
 Wind from varies
Wind: varies 3 mph , 6 km/h
Temperature: 75°F , 24°C
Dew Point: 73°F , 23°C
Humidity: 94%
Barometer: 29.93 inHg , 1013.5 hPa
Clouds: Partly cloudy
Visibility: 10 miles , 16 km
Cloud details: Few Clouds 2500 ft
Partly cloudy 25000 ft
2024/06/15 09:53 KTPA 150953Z VRB03KT 10SM FEW025 SCT250 24/23 A2993 RMK AO2 SLP134 T02440228 $
 
KMTH - Marathon, FL,
Distance from station: S 915mi, 1473km
Updated: Sat, 15-Jun-2024 4:53am CDT
Partly cloudy
Partly cloudy
 Wind from E
Wind: E 6 mph , 9 km/h
Temperature: 82°F , 28°C
Heat Index: 91°F , 33°C
Dew Point: 79°F , 26°C
Humidity: 89%
Barometer: 29.92 inHg , 1013.2 hPa
Clouds: Partly cloudy
Visibility: 10 miles , 16 km
Cloud details: Few Clouds 1700 ft
Partly cloudy 2500 ft
Partly cloudy 11000 ft
2024/06/15 09:53 KMTH 150953Z AUTO 09005KT 10SM FEW017 SCT025 SCT110 28/26 A2992 RMK AO2 LTG DSNT W SLP133 T02830261 $
KNYL - Yuma, AZ
Distance from station: W 3147mi, 5065km
Updated: Sat, 15-Jun-2024 4:57am CDT
Clear
Clear
 Wind from SSE
Wind: SSE 7 mph , 11 km/h
Temperature: 81°F , 27°C
Dew Point: 41°F , 5°C
Humidity: 24%
Barometer: 29.67 inHg , 1004.7 hPa
Clouds: Clear
Visibility: 10 miles , 16 km
2024/06/15 09:57 KNYL 150957Z AUTO 16006KT 10SM CLR 27/05 A2967 RMK AO2 SLP043 T02720050
 
PABI - Ft. Greely, AK
Distance from station: NW 4300mi, 7167km
Updated: Sat, 15-Jun-2024 4:53am CDT
Clear
Clear
 Wind from S
Wind: S 5 mph , 7 km/h
Temperature: 50°F , 10°C
Wind Chill: 48°F , 9°C
Dew Point: 46°F , 8°C
Humidity: 88%
Barometer: 30.16 inHg , 1021.3 hPa
Clouds: Clear
Visibility: 10 miles , 16 km
2024/06/15 09:53 PABI 150953Z AUTO 19004KT 10SM CLR 10/08 A3016 RMK AO2 SLP217 T01000083 TSNO $